createdAt,value
2019-04-07T00:01:24.073Z,11.91
2019-04-07T00:03:53.325Z,11.92
2019-04-07T00:06:23.612Z,11.99
2019-04-07T00:08:56.338Z,12.03
2019-04-07T00:11:27.843Z,11.95
2019-04-07T00:13:57.949Z,11.86
2019-04-07T00:16:27.434Z,11.91
2019-04-07T00:18:57.841Z,11.92
2019-04-07T00:21:28.069Z,11.81
2019-04-07T00:23:58.134Z,11.77
2019-04-07T00:26:28.099Z,11.68
2019-04-07T00:28:57.934Z,11.64
2019-04-07T00:31:29.104Z,11.68
2019-04-07T00:33:58.306Z,11.65
2019-04-07T00:36:28.312Z,11.59
2019-04-07T00:38:58.445Z,11.56
2019-04-07T00:41:29.968Z,11.49
2019-04-07T00:44:00.011Z,11.40
2019-04-07T00:46:30.116Z,11.45
2019-04-07T00:49:00.302Z,11.39
2019-04-07T00:51:29.769Z,11.25
2019-04-07T00:53:59.832Z,11.17
2019-04-07T00:56:29.305Z,11.15
2019-04-07T00:58:58.844Z,11.21
2019-04-07T01:01:31.855Z,11.23
2019-04-07T01:04:02.488Z,11.05
2019-04-07T01:06:31.986Z,11.06
2019-04-07T01:09:01.819Z,10.95
2019-04-07T01:11:31.229Z,10.89
2019-04-07T01:14:03.126Z,10.89
2019-04-07T01:16:32.745Z,10.86
2019-04-07T01:19:03.433Z,10.89
2019-04-07T01:21:33.186Z,10.89
2019-04-07T01:24:02.489Z,10.91
2019-04-07T01:26:32.733Z,10.87
2019-04-07T01:29:02.965Z,10.80
2019-04-07T01:31:33.040Z,10.79
2019-04-07T01:34:03.225Z,10.76
2019-04-07T01:36:32.920Z,10.73
2019-04-07T01:39:02.958Z,10.72
2019-04-07T01:41:43.003Z,10.72
2019-04-07T01:44:27.651Z,10.74
2019-04-07T01:47:16.731Z,10.74
2019-04-07T01:50:02.228Z,10.73
2019-04-07T01:52:51.223Z,10.69
2019-04-07T01:55:32.261Z,10.69
2019-04-07T01:58:22.740Z,10.64
2019-04-07T02:01:04.611Z,10.53
2019-04-07T02:03:57.251Z,10.60
2019-04-07T02:06:46.615Z,10.59
2019-04-07T02:09:35.831Z,10.60
2019-04-07T02:12:36.698Z,10.64
2019-04-07T02:15:23.029Z,10.69
2019-04-07T02:18:13.560Z,10.70
2019-04-07T02:21:03.373Z,10.65
2019-04-07T02:23:51.352Z,10.56
2019-04-07T02:26:57.674Z,10.49
2019-04-07T02:29:38.085Z,10.44
2019-04-07T02:32:25.896Z,10.43
2019-04-07T02:35:25.875Z,10.38
2019-04-07T02:38:00.379Z,10.33
2019-04-07T02:40:57.415Z,10.36
2019-04-07T02:43:34.065Z,10.41
2019-04-07T02:46:35.175Z,10.40
2019-04-07T02:49:36.593Z,10.26
2019-04-07T02:52:23.733Z,10.32
2019-04-07T02:55:14.728Z,10.38
2019-04-07T02:58:06.544Z,10.47
2019-04-07T03:00:42.109Z,10.45
2019-04-07T03:03:39.152Z,10.52
2019-04-07T03:06:39.181Z,10.67
2019-04-07T03:09:16.836Z,10.56
2019-04-07T03:12:05.672Z,10.52
2019-04-07T03:14:54.378Z,10.36
2019-04-07T03:17:31.960Z,10.22
2019-04-07T03:20:18.939Z,10.14
2019-04-07T03:23:10.781Z,10.04
2019-04-07T03:26:00.717Z,10.04
2019-04-07T03:28:43.899Z,10.00
2019-04-07T03:31:36.531Z,10.01
2019-04-07T03:34:33.466Z,10.13
2019-04-07T03:37:33.100Z,10.07
2019-04-07T03:40:11.603Z,10.11
2019-04-07T03:42:59.361Z,10.07
2019-04-07T03:45:36.434Z,9.94
2019-04-07T03:48:31.785Z,9.84
2019-04-07T03:51:33.161Z,9.80
2019-04-07T03:54:16.670Z,9.77
2019-04-07T03:57:03.461Z,9.85
2019-04-07T03:59:53.986Z,9.82
2019-04-07T04:02:42.384Z,9.87
2019-04-07T04:05:28.103Z,9.80
2019-04-07T04:08:26.610Z,9.77
2019-04-07T04:11:06.545Z,9.77
2019-04-07T04:13:58.265Z,9.67
2019-04-07T04:16:34.031Z,9.62
2019-04-07T04:19:05.120Z,9.51
2019-04-07T04:21:34.414Z,9.57
2019-04-07T04:24:04.361Z,9.54
2019-04-07T04:26:37.917Z,9.57
2019-04-07T04:29:08.313Z,9.60
2019-04-07T04:31:38.866Z,9.49
2019-04-07T04:34:10.203Z,9.53
2019-04-07T04:36:40.762Z,9.51
2019-04-07T04:39:10.754Z,9.55
2019-04-07T04:41:40.901Z,9.56
2019-04-07T04:44:10.394Z,9.56
2019-04-07T04:46:41.107Z,9.50
2019-04-07T04:49:11.866Z,9.38
2019-04-07T04:51:42.611Z,9.30
2019-04-07T04:54:12.606Z,9.28
2019-04-07T04:56:43.428Z,9.21
2019-04-07T04:59:12.931Z,9.12
2019-04-07T05:01:43.293Z,9.30
2019-04-07T05:04:13.410Z,9.04
2019-04-07T05:06:45.668Z,8.98
2019-04-07T05:09:16.069Z,9.03
2019-04-07T05:11:45.278Z,8.94
2019-04-07T05:14:15.197Z,9.00
2019-04-07T05:16:44.773Z,8.95
2019-04-07T05:19:14.289Z,8.97
2019-04-07T05:21:44.354Z,9.00
2019-04-07T05:24:13.517Z,9.00
2019-04-07T05:26:43.301Z,9.03
2019-04-07T05:29:12.475Z,9.08
2019-04-07T05:31:41.967Z,9.10
2019-04-07T05:34:14.273Z,9.14
2019-04-07T05:36:42.405Z,9.23
2019-04-07T05:39:15.402Z,9.29
2019-04-07T05:41:45.027Z,9.41
2019-04-07T05:44:21.088Z,9.50
2019-04-07T05:46:52.855Z,9.49
2019-04-07T05:49:24.271Z,9.64
2019-04-07T05:51:54.475Z,9.57
2019-04-07T05:54:24.064Z,9.59
2019-04-07T05:56:54.125Z,9.62
2019-04-07T05:59:25.407Z,9.64
2019-04-07T06:02:00.755Z,9.66
2019-04-07T06:04:28.330Z,9.61
2019-04-07T06:07:00.384Z,9.59
2019-04-07T06:09:32.845Z,9.60
2019-04-07T06:12:03.025Z,9.64
2019-04-07T06:14:32.357Z,9.53
2019-04-07T06:17:02.361Z,9.47
2019-04-07T06:19:31.573Z,9.63
2019-04-07T06:22:07.519Z,9.71
2019-04-07T06:24:36.155Z,9.83
2019-04-07T06:27:07.091Z,9.99
2019-04-07T06:29:36.606Z,10.01
2019-04-07T06:32:09.760Z,10.14
2019-04-07T06:34:39.884Z,10.39
2019-04-07T06:37:07.758Z,10.55
2019-04-07T06:39:37.385Z,10.73
2019-04-07T06:42:07.486Z,10.75
2019-04-07T06:44:38.524Z,10.85
2019-04-07T06:47:21.462Z,10.93
2019-04-07T06:50:14.199Z,11.11
2019-04-07T06:53:10.575Z,11.16
2019-04-07T06:56:00.033Z,11.31
2019-04-07T06:58:45.158Z,11.30
2019-04-07T07:01:32.300Z,11.36
2019-04-07T07:04:19.450Z,11.44
2019-04-07T07:07:07.330Z,11.49
2019-04-07T07:09:52.050Z,11.65
2019-04-07T07:12:38.810Z,11.71
2019-04-07T07:15:34.653Z,11.71
2019-04-07T07:18:27.321Z,11.79
2019-04-07T07:21:38.066Z,11.80
2019-04-07T07:24:07.145Z,11.81
2019-04-07T07:26:36.642Z,11.90
2019-04-07T07:29:06.825Z,11.84
2019-04-07T07:31:39.107Z,11.96
2019-04-07T07:34:10.664Z,12.06
2019-04-07T07:36:41.824Z,12.21
2019-04-07T07:39:14.526Z,12.39
2019-04-07T07:41:44.469Z,12.47
2019-04-07T07:44:14.400Z,12.60
2019-04-07T07:46:44.426Z,12.63
2019-04-07T07:49:15.908Z,12.70
2019-04-07T07:51:48.550Z,12.94
2019-04-07T07:54:18.313Z,13.01
2019-04-07T07:56:50.133Z,13.10
2019-04-07T07:59:20.067Z,13.17
2019-04-07T08:01:51.669Z,13.30
2019-04-07T08:04:24.814Z,13.29
2019-04-07T08:06:54.462Z,13.42
2019-04-07T08:09:25.990Z,13.61
2019-04-07T08:11:55.569Z,13.60
2019-04-07T08:14:27.329Z,13.57
2019-04-07T08:17:00.174Z,13.87
2019-04-07T08:19:29.659Z,13.89
2019-04-07T08:21:58.539Z,13.87
2019-04-07T08:24:28.274Z,13.95
2019-04-07T08:26:59.088Z,14.03
2019-04-07T08:29:30.253Z,14.11
2019-04-07T08:32:00.361Z,14.27
2019-04-07T08:34:31.513Z,14.25
2019-04-07T08:37:00.955Z,14.48
2019-04-07T08:39:34.125Z,14.62
2019-04-07T08:42:04.722Z,14.79
2019-04-07T08:44:34.410Z,14.74
2019-04-07T08:47:04.213Z,14.64
2019-04-07T08:49:34.519Z,14.77
2019-04-07T08:52:09.044Z,14.83
2019-04-07T08:54:36.934Z,15.15
2019-04-07T08:57:07.080Z,15.43
2019-04-07T08:59:39.873Z,15.41
2019-04-07T09:02:07.614Z,15.41
2019-04-07T09:04:36.801Z,15.42
2019-04-07T09:07:06.247Z,15.47
2019-04-07T09:09:37.473Z,15.74
2019-04-07T09:12:07.207Z,15.77
2019-04-07T09:14:38.721Z,16.02
2019-04-07T09:17:30.931Z,16.21
2019-04-07T09:20:18.968Z,16.43
2019-04-07T09:23:08.139Z,16.40
2019-04-07T09:26:04.028Z,16.44
2019-04-07T09:28:57.467Z,16.35
2019-04-07T09:31:49.673Z,16.50
2019-04-07T09:34:41.380Z,16.63
2019-04-07T09:37:23.546Z,16.63
2019-04-07T09:40:06.757Z,16.74
2019-04-07T09:42:57.596Z,17.03
2019-04-07T09:45:32.453Z,17.11
2019-04-07T09:48:07.927Z,17.44
2019-04-07T09:50:58.648Z,17.26
2019-04-07T09:53:42.429Z,17.15
2019-04-07T09:56:27.252Z,17.60
2019-04-07T09:59:10.056Z,17.52
2019-04-07T10:01:52.848Z,17.66
2019-04-07T10:04:37.930Z,17.54
2019-04-07T10:07:28.400Z,17.94
2019-04-07T10:10:13.748Z,18.10
2019-04-07T10:13:06.687Z,18.23
2019-04-07T10:16:10.776Z,18.55
2019-04-07T10:19:07.624Z,18.63
2019-04-07T10:21:51.765Z,18.97
2019-04-07T10:24:34.714Z,18.85
2019-04-07T10:27:11.185Z,18.98
2019-04-07T10:29:58.143Z,18.79
2019-04-07T10:32:34.067Z,18.96
2019-04-07T10:35:30.668Z,19.50
2019-04-07T10:38:09.976Z,19.11
2019-04-07T10:40:52.551Z,19.11
2019-04-07T10:43:41.007Z,18.81
2019-04-07T10:46:31.229Z,19.08
2019-04-07T10:49:19.289Z,18.94
2019-04-07T10:52:23.513Z,18.28
2019-04-07T10:55:10.105Z,18.56
2019-04-07T10:57:49.401Z,18.68
2019-04-07T11:00:48.823Z,18.81
2019-04-07T11:03:26.256Z,19.20
2019-04-07T11:06:21.524Z,19.38
2019-04-07T11:09:08.825Z,19.18
2019-04-07T11:11:57.765Z,19.36
2019-04-07T11:14:48.125Z,19.25
2019-04-07T11:17:29.234Z,18.81
2019-04-07T11:20:20.555Z,18.92
2019-04-07T11:23:13.002Z,18.95
2019-04-07T11:26:07.590Z,18.72
2019-04-07T11:28:47.059Z,18.87
2019-04-07T11:31:26.680Z,18.48
2019-04-07T11:34:19.300Z,19.12
2019-04-07T11:37:14.306Z,19.22
2019-04-07T11:40:04.797Z,18.76
2019-04-07T11:42:44.852Z,19.10
2019-04-07T11:45:32.055Z,18.79
2019-04-07T11:48:18.681Z,19.31
2019-04-07T11:51:16.864Z,19.80
2019-04-07T11:54:11.477Z,20.01
2019-04-07T11:56:51.205Z,20.59
2019-04-07T11:59:39.255Z,21.03
2019-04-07T12:02:20.810Z,21.02
2019-04-07T12:05:08.202Z,21.27
2019-04-07T12:07:58.182Z,21.27
2019-04-07T12:11:04.924Z,20.92
2019-04-07T12:13:56.292Z,21.41
2019-04-07T12:16:33.835Z,20.84
2019-04-07T12:19:23.860Z,20.94
2019-04-07T12:22:13.871Z,20.81
2019-04-07T12:25:10.593Z,21.48
2019-04-07T12:27:58.115Z,20.93
2019-04-07T12:31:02.165Z,20.91
2019-04-07T12:33:59.962Z,21.40
2019-04-07T12:36:48.354Z,21.00
2019-04-07T12:39:28.835Z,20.67
2019-04-07T12:42:22.343Z,20.83
2019-04-07T12:45:11.222Z,21.10
2019-04-07T12:47:55.485Z,21.47
2019-04-07T12:50:37.642Z,21.78
2019-04-07T12:53:26.682Z,21.92
2019-04-07T12:56:13.522Z,21.94
2019-04-07T12:58:52.675Z,22.41
2019-04-07T13:01:35.250Z,22.14
2019-04-07T13:04:27.518Z,22.24
2019-04-07T13:07:05.755Z,21.48
2019-04-07T13:10:02.876Z,21.29
2019-04-07T13:13:05.085Z,21.44
2019-04-07T13:16:00.352Z,21.60
2019-04-07T13:18:50.332Z,21.59
2019-04-07T13:21:25.561Z,22.20
2019-04-07T13:24:28.388Z,22.30
2019-04-07T13:26:52.743Z,22.45
2019-04-07T13:29:43.284Z,22.76
2019-04-07T13:32:40.237Z,22.81
2019-04-07T13:35:24.629Z,23.47
2019-04-07T13:38:12.275Z,23.81
2019-04-07T13:41:00.716Z,23.36
2019-04-07T13:44:07.611Z,22.95
2019-04-07T13:46:54.309Z,23.76
2019-04-07T13:49:55.390Z,23.92
2019-04-07T13:52:41.956Z,24.17
2019-04-07T13:55:22.096Z,24.87
2019-04-07T13:58:13.934Z,24.35
2019-04-07T14:00:55.828Z,23.52
2019-04-07T14:03:40.606Z,23.63
2019-04-07T14:06:20.528Z,23.22
2019-04-07T14:09:19.147Z,23.04
2019-04-07T14:12:12.332Z,23.38
2019-04-07T14:15:06.044Z,24.27
2019-04-07T14:18:00.057Z,24.38
2019-04-07T14:20:52.902Z,23.59
2019-04-07T14:23:54.650Z,22.79
2019-04-07T14:26:58.911Z,22.68
2019-04-07T14:29:53.611Z,23.11
2019-04-07T14:32:42.781Z,23.20
2019-04-07T14:35:30.521Z,22.96
2019-04-07T14:38:40.059Z,22.35
2019-04-07T14:41:29.947Z,22.06
2019-04-07T14:44:26.491Z,21.83
2019-04-07T14:47:08.795Z,21.77
2019-04-07T14:50:00.556Z,21.71
2019-04-07T14:52:58.512Z,21.87
2019-04-07T14:56:07.723Z,21.67
2019-04-07T14:58:51.304Z,21.24
2019-04-07T15:01:41.098Z,21.39
2019-04-07T15:04:10.863Z,21.02
2019-04-07T15:06:40.557Z,21.32
2019-04-07T15:09:29.493Z,21.15
2019-04-07T15:12:20.139Z,20.89
2019-04-07T15:14:45.981Z,20.81
2019-04-07T15:17:17.698Z,21.09
2019-04-07T15:19:49.311Z,20.88
2019-04-07T15:22:19.599Z,20.41
2019-04-07T15:24:49.512Z,20.30
2019-04-07T15:27:21.931Z,20.42
2019-04-07T15:29:51.339Z,20.66
2019-04-07T15:32:24.527Z,21.07
2019-04-07T15:34:54.654Z,21.27
2019-04-07T15:37:25.123Z,21.12
2019-04-07T15:39:54.272Z,21.26
2019-04-07T15:42:34.964Z,21.89
2019-04-07T15:44:54.526Z,21.54
2019-04-07T15:47:25.489Z,20.80
2019-04-07T15:50:05.414Z,20.69
2019-04-07T15:52:37.058Z,20.63
2019-04-07T15:55:07.268Z,20.53
2019-04-07T15:57:37.276Z,20.45
2019-04-07T16:00:07.903Z,20.55
2019-04-07T16:02:40.939Z,20.50
2019-04-07T16:05:11.604Z,20.50
2019-04-07T16:07:42.087Z,20.40
2019-04-07T16:10:11.665Z,19.94
2019-04-07T16:12:49.601Z,19.87
2019-04-07T16:15:16.584Z,19.76
2019-04-07T16:17:47.613Z,19.81
2019-04-07T16:20:23.224Z,19.85
2019-04-07T16:22:53.178Z,20.01
2019-04-07T16:25:27.536Z,19.96
2019-04-07T16:27:54.622Z,19.89
2019-04-07T16:30:24.810Z,19.88
2019-04-07T16:32:54.792Z,19.68
2019-04-07T16:35:27.826Z,19.66
2019-04-07T16:37:58.327Z,19.56
2019-04-07T16:40:29.239Z,19.42
2019-04-07T16:43:07.679Z,19.46
2019-04-07T16:45:30.450Z,19.59
2019-04-07T16:48:00.026Z,19.39
2019-04-07T16:50:31.560Z,19.37
2019-04-07T16:53:04.507Z,19.56
2019-04-07T16:55:37.211Z,19.40
2019-04-07T16:58:14.469Z,19.26
2019-04-07T17:00:47.599Z,19.09
2019-04-07T17:03:18.218Z,18.97
2019-04-07T17:05:47.422Z,19.07
2019-04-07T17:08:22.461Z,19.05
2019-04-07T17:10:52.755Z,18.90
2019-04-07T17:13:37.085Z,18.88
2019-04-07T17:15:59.398Z,18.90
2019-04-07T17:18:41.205Z,18.57
2019-04-07T17:21:15.644Z,18.63
2019-04-07T17:23:46.068Z,18.65
2019-04-07T17:26:15.316Z,18.70
2019-04-07T17:28:47.413Z,18.71
2019-04-07T17:31:17.492Z,18.68
2019-04-07T17:33:49.527Z,18.60
2019-04-07T17:36:21.636Z,18.59
2019-04-07T17:39:18.650Z,18.54
2019-04-07T17:41:50.947Z,18.39
2019-04-07T17:44:41.726Z,18.08
2019-04-07T17:47:39.379Z,17.88
2019-04-07T17:50:31.579Z,17.83
2019-04-07T17:53:16.159Z,17.92
2019-04-07T17:56:06.796Z,17.82
2019-04-07T17:58:45.734Z,17.72
2019-04-07T18:01:43.063Z,17.83
2019-04-07T18:04:25.563Z,17.81
2019-04-07T18:07:12.381Z,17.67
2019-04-07T18:10:15.470Z,17.59
2019-04-07T18:12:55.611Z,17.67
2019-04-07T18:15:40.113Z,17.53
2019-04-07T18:18:24.911Z,17.48
2019-04-07T18:21:13.307Z,17.46
2019-04-07T18:24:15.511Z,17.46
2019-04-07T18:27:00.369Z,17.41
2019-04-07T18:29:53.957Z,17.42
2019-04-07T18:33:03.071Z,17.32
2019-04-07T18:35:54.317Z,17.32
2019-04-07T18:38:54.962Z,17.26
2019-04-07T18:41:36.528Z,17.08
2019-04-07T18:44:29.484Z,16.97
2019-04-07T18:47:31.611Z,16.85
2019-04-07T18:50:39.667Z,16.88
2019-04-07T18:53:48.665Z,16.83
2019-04-07T18:56:46.176Z,16.71
2019-04-07T18:59:55.588Z,16.70
2019-04-07T19:02:33.271Z,16.71
2019-04-07T19:05:31.571Z,16.64
2019-04-07T19:08:20.118Z,16.62
2019-04-07T19:11:16.591Z,16.53
2019-04-07T19:14:33.490Z,16.54
2019-04-07T19:17:10.795Z,16.48
2019-04-07T19:19:59.528Z,16.46
2019-04-07T19:22:52.829Z,16.39
2019-04-07T19:25:47.863Z,16.38
2019-04-07T19:28:43.153Z,16.30
2019-04-07T19:31:30.407Z,16.31
2019-04-07T19:34:20.589Z,16.29
2019-04-07T19:36:57.161Z,16.14
2019-04-07T19:39:53.610Z,16.07
2019-04-07T19:42:39.902Z,16.05
2019-04-07T19:45:30.701Z,16.03
2019-04-07T19:48:30.893Z,16.12
2019-04-07T19:51:29.379Z,15.97
2019-04-07T19:54:19.111Z,15.84
2019-04-07T19:57:17.612Z,15.72
2019-04-07T20:00:06.192Z,15.70
2019-04-07T20:02:53.168Z,15.85
2019-04-07T20:05:57.061Z,15.69
2019-04-07T20:08:49.302Z,15.61
2019-04-07T20:11:37.112Z,15.63
2019-04-07T20:14:45.079Z,15.53
2019-04-07T20:17:29.291Z,15.63
2019-04-07T20:20:15.850Z,15.49
2019-04-07T20:23:12.503Z,15.57
2019-04-07T20:26:01.710Z,15.56
2019-04-07T20:28:45.105Z,15.41
2019-04-07T20:31:23.732Z,15.37
2019-04-07T20:34:12.031Z,15.33
2019-04-07T20:37:00.206Z,15.35
2019-04-07T20:39:51.106Z,15.30
2019-04-07T20:42:48.424Z,15.28
2019-04-07T20:45:36.588Z,15.33
2019-04-07T20:48:33.495Z,15.21
2019-04-07T20:51:26.333Z,15.37
2019-04-07T20:54:07.656Z,15.40
2019-04-07T20:56:48.412Z,15.21
2019-04-07T20:59:48.614Z,15.29
2019-04-07T21:02:29.341Z,15.29
2019-04-07T21:05:22.939Z,15.26
2019-04-07T21:08:08.522Z,15.39
2019-04-07T21:11:04.755Z,15.36
2019-04-07T21:13:47.332Z,15.24
2019-04-07T21:16:32.463Z,15.29
2019-04-07T21:19:12.505Z,15.28
2019-04-07T21:22:01.323Z,15.32
2019-04-07T21:24:51.746Z,15.23
2019-04-07T21:27:52.831Z,15.28
2019-04-07T21:30:43.001Z,15.19
2019-04-07T21:33:25.654Z,15.16
2019-04-07T21:36:14.151Z,15.16
2019-04-07T21:39:20.462Z,15.15
2019-04-07T21:42:09.276Z,15.21
2019-04-07T21:45:05.441Z,15.25
2019-04-07T21:47:59.893Z,15.20
2019-04-07T21:50:56.842Z,15.10
2019-04-07T21:53:51.487Z,15.17
2019-04-07T21:56:43.171Z,15.03
2019-04-07T21:59:33.809Z,14.95
2019-04-07T22:02:21.737Z,14.99
2019-04-07T22:05:26.890Z,14.95
2019-04-07T22:08:14.599Z,14.89
2019-04-07T22:10:40.174Z,14.91
2019-04-07T22:13:16.988Z,14.87
2019-04-07T22:15:51.870Z,14.94
2019-04-07T22:18:18.151Z,15.02
2019-04-07T22:20:52.301Z,14.97
2019-04-07T22:23:22.986Z,14.86
2019-04-07T22:25:54.846Z,14.81
2019-04-07T22:28:28.357Z,14.91
2019-04-07T22:30:57.460Z,14.84
2019-04-07T22:33:30.126Z,14.85
2019-04-07T22:35:57.672Z,14.90
2019-04-07T22:38:27.431Z,14.89
2019-04-07T22:40:58.375Z,15.00
2019-04-07T22:43:50.830Z,14.71
2019-04-07T22:46:24.557Z,14.72
2019-04-07T22:48:53.173Z,14.78
2019-04-07T22:51:23.803Z,14.86
2019-04-07T22:53:56.855Z,14.83
2019-04-07T22:56:29.844Z,14.70
2019-04-07T22:59:01.592Z,14.76
2019-04-07T23:01:33.378Z,14.71
2019-04-07T23:04:03.498Z,14.72
2019-04-07T23:06:34.073Z,14.79
2019-04-07T23:09:06.341Z,14.71
2019-04-07T23:11:35.803Z,14.78
2019-04-07T23:14:09.387Z,14.75
2019-04-07T23:16:38.717Z,14.65
2019-04-07T23:19:08.796Z,14.72
2019-04-07T23:21:38.429Z,14.56
2019-04-07T23:24:07.775Z,14.52
2019-04-07T23:26:36.940Z,14.53
2019-04-07T23:29:06.638Z,14.58
2019-04-07T23:31:36.330Z,14.49
2019-04-07T23:34:06.367Z,14.56
2019-04-07T23:36:36.185Z,14.54
2019-04-07T23:39:07.716Z,14.54
2019-04-07T23:41:37.300Z,14.52
2019-04-07T23:44:07.407Z,14.56
2019-04-07T23:46:36.579Z,14.60
2019-04-07T23:49:06.057Z,14.49
2019-04-07T23:51:35.252Z,14.54
2019-04-07T23:54:14.282Z,14.58
2019-04-07T23:56:44.670Z,14.58
2019-04-07T23:59:14.665Z,14.57
